sensor_id;sensor_type;location;lat;lon;timestamp;pressure;altitude;pressure_sealevel;temperature;humidity
16355;BME280;8287;51.644;8.494;2023-08-06T00:00:59;99414.59;;;17.20;100.00
16355;BME280;8287;51.644;8.494;2023-08-06T00:03:26;99420.75;;;17.24;100.00
16355;BME280;8287;51.644;8.494;2023-08-06T00:05:52;99423.50;;;17.31;100.00
16355;BME280;8287;51.644;8.494;2023-08-06T00:08:19;99421.56;;;17.31;100.00
16355;BME280;8287;51.644;8.494;2023-08-06T00:10:47;99419.25;;;17.30;100.00
16355;BME280;8287;51.644;8.494;2023-08-06T00:13:14;99415.47;;;17.34;100.00
16355;BME280;8287;51.644;8.494;2023-08-06T00:15:42;99408.56;;;17.30;100.00
16355;BME280;8287;51.644;8.494;2023-08-06T00:18:08;99414.25;;;17.25;100.00
16355;BME280;8287;51.644;8.494;2023-08-06T00:20:35;99411.66;;;17.32;100.00
16355;BME280;8287;51.644;8.494;2023-08-06T00:23:04;99401.69;;;17.32;100.00
16355;BME280;8287;51.644;8.494;2023-08-06T00:25:31;99398.91;;;17.22;100.00
16355;BME280;8287;51.644;8.494;2023-08-06T00:27:57;99396.31;;;17.29;100.00
16355;BME280;8287;51.644;8.494;2023-08-06T00:30:24;99397.94;;;17.37;100.00
16355;BME280;8287;51.644;8.494;2023-08-06T00:32:52;99399.34;;;17.24;100.00
16355;BME280;8287;51.644;8.494;2023-08-06T00:35:19;99395.88;;;17.23;100.00
16355;BME280;8287;51.644;8.494;2023-08-06T00:37:45;99393.25;;;17.30;100.00
16355;BME280;8287;51.644;8.494;2023-08-06T00:40:13;99394.03;;;17.27;100.00
16355;BME280;8287;51.644;8.494;2023-08-06T00:42:39;99386.63;;;17.17;100.00
16355;BME280;8287;51.644;8.494;2023-08-06T00:45:06;99395.53;;;17.25;100.00
16355;BME280;8287;51.644;8.494;2023-08-06T00:47:33;99395.91;;;17.27;100.00
16355;BME280;8287;51.644;8.494;2023-08-06T00:50:01;99382.41;;;17.13;100.00
16355;BME280;8287;51.644;8.494;2023-08-06T00:52:28;99386.16;;;17.05;100.00
16355;BME280;8287;51.644;8.494;2023-08-06T00:54:55;99379.66;;;17.02;100.00
16355;BME280;8287;51.644;8.494;2023-08-06T00:57:23;99373.94;;;17.07;100.00
16355;BME280;8287;51.644;8.494;2023-08-06T00:59:51;99372.41;;;17.06;100.00
16355;BME280;8287;51.644;8.494;2023-08-06T01:02:17;99365.53;;;17.05;100.00
16355;BME280;8287;51.644;8.494;2023-08-06T01:04:44;99363.28;;;17.14;100.00
16355;BME280;8287;51.644;8.494;2023-08-06T01:07:19;99367.84;;;17.07;100.00
16355;BME280;8287;51.644;8.494;2023-08-06T01:09:57;99355.78;;;16.87;100.00
16355;BME280;8287;51.644;8.494;2023-08-06T01:12:34;99354.53;;;16.74;100.00
16355;BME280;8287;51.644;8.494;2023-08-06T01:15:07;99356.66;;;16.58;100.00
16355;BME280;8287;51.644;8.494;2023-08-06T01:17:37;99353.50;;;16.49;100.00
16355;BME280;8287;51.644;8.494;2023-08-06T01:20:06;99355.44;;;16.52;100.00
16355;BME280;8287;51.644;8.494;2023-08-06T01:22:34;99362.88;;;16.69;100.00
16355;BME280;8287;51.644;8.494;2023-08-06T01:25:01;99365.81;;;16.57;100.00
16355;BME280;8287;51.644;8.494;2023-08-06T01:27:32;99345.97;;;16.58;100.00
16355;BME280;8287;51.644;8.494;2023-08-06T01:30:04;99349.03;;;16.60;100.00
16355;BME280;8287;51.644;8.494;2023-08-06T01:32:34;99341.09;;;16.34;100.00
16355;BME280;8287;51.644;8.494;2023-08-06T01:35:04;99328.03;;;16.29;100.00
16355;BME280;8287;51.644;8.494;2023-08-06T01:37:31;99327.63;;;16.27;100.00
16355;BME280;8287;51.644;8.494;2023-08-06T01:39:59;99319.31;;;16.32;100.00
16355;BME280;8287;51.644;8.494;2023-08-06T01:42:26;99319.16;;;16.51;100.00
16355;BME280;8287;51.644;8.494;2023-08-06T01:44:52;99316.78;;;16.46;100.00
16355;BME280;8287;51.644;8.494;2023-08-06T01:47:19;99321.53;;;16.60;100.00
16355;BME280;8287;51.644;8.494;2023-08-06T01:49:46;99315.09;;;16.64;100.00
16355;BME280;8287;51.644;8.494;2023-08-06T01:52:12;99309.28;;;16.59;100.00
16355;BME280;8287;51.644;8.494;2023-08-06T01:54:39;99307.84;;;16.68;100.00
16355;BME280;8287;51.644;8.494;2023-08-06T01:57:07;99306.56;;;16.55;100.00
16355;BME280;8287;51.644;8.494;2023-08-06T01:59:34;99297.03;;;16.58;100.00
16355;BME280;8287;51.644;8.494;2023-08-06T02:02:00;99298.09;;;16.50;100.00
16355;BME280;8287;51.644;8.494;2023-08-06T02:04:27;99289.22;;;16.39;100.00
16355;BME280;8287;51.644;8.494;2023-08-06T02:06:54;99287.22;;;16.32;100.00
16355;BME280;8287;51.644;8.494;2023-08-06T02:09:20;99295.22;;;16.29;100.00
16355;BME280;8287;51.644;8.494;2023-08-06T02:11:47;99295.75;;;16.08;100.00
16355;BME280;8287;51.644;8.494;2023-08-06T02:14:15;99293.34;;;16.00;100.00
16355;BME280;8287;51.644;8.494;2023-08-06T02:16:42;99285.38;;;16.03;100.00
16355;BME280;8287;51.644;8.494;2023-08-06T02:19:08;99281.25;;;16.09;100.00
16355;BME280;8287;51.644;8.494;2023-08-06T02:21:35;99285.06;;;16.41;100.00
16355;BME280;8287;51.644;8.494;2023-08-06T02:24:02;99282.03;;;16.46;100.00
16355;BME280;8287;51.644;8.494;2023-08-06T02:26:28;99295.06;;;16.51;100.00
16355;BME280;8287;51.644;8.494;2023-08-06T02:28:55;99279.38;;;16.50;100.00
16355;BME280;8287;51.644;8.494;2023-08-06T02:31:23;99281.66;;;16.48;100.00
16355;BME280;8287;51.644;8.494;2023-08-06T02:33:50;99274.66;;;16.36;100.00
16355;BME280;8287;51.644;8.494;2023-08-06T02:36:17;99269.53;;;16.21;100.00
16355;BME280;8287;51.644;8.494;2023-08-06T02:38:43;99264.88;;;16.14;100.00
16355;BME280;8287;51.644;8.494;2023-08-06T02:41:10;99260.78;;;16.24;100.00
16355;BME280;8287;51.644;8.494;2023-08-06T02:43:37;99251.63;;;16.25;100.00
16355;BME280;8287;51.644;8.494;2023-08-06T02:46:03;99261.06;;;16.15;100.00
16355;BME280;8287;51.644;8.494;2023-08-06T02:48:32;99257.06;;;15.99;100.00
16355;BME280;8287;51.644;8.494;2023-08-06T02:50:59;99257.94;;;16.06;100.00
16355;BME280;8287;51.644;8.494;2023-08-06T02:53:26;99261.00;;;16.08;100.00
16355;BME280;8287;51.644;8.494;2023-08-06T02:55:52;99261.97;;;16.30;100.00
16355;BME280;8287;51.644;8.494;2023-08-06T02:58:19;99268.28;;;16.48;100.00
16355;BME280;8287;51.644;8.494;2023-08-06T03:00:59;99277.50;;;16.50;100.00
16355;BME280;8287;51.644;8.494;2023-08-06T03:03:26;99259.44;;;16.40;100.00
16355;BME280;8287;51.644;8.494;2023-08-06T03:05:54;99269.84;;;16.16;100.00
16355;BME280;8287;51.644;8.494;2023-08-06T03:08:21;99257.03;;;15.95;100.00
16355;BME280;8287;51.644;8.494;2023-08-06T03:10:48;99249.34;;;15.90;100.00
16355;BME280;8287;51.644;8.494;2023-08-06T03:13:15;99239.50;;;15.98;100.00
16355;BME280;8287;51.644;8.494;2023-08-06T03:15:42;99234.50;;;15.96;100.00
16355;BME280;8287;51.644;8.494;2023-08-06T03:18:09;99232.25;;;15.98;100.00
16355;BME280;8287;51.644;8.494;2023-08-06T03:20:35;99232.03;;;16.14;100.00
16355;BME280;8287;51.644;8.494;2023-08-06T03:23:03;99230.56;;;16.20;100.00
16355;BME280;8287;51.644;8.494;2023-08-06T03:25:30;99225.72;;;16.32;100.00
16355;BME280;8287;51.644;8.494;2023-08-06T03:27:56;99223.31;;;16.20;100.00
16355;BME280;8287;51.644;8.494;2023-08-06T03:30:23;99224.09;;;16.21;100.00
16355;BME280;8287;51.644;8.494;2023-08-06T03:32:50;99224.50;;;16.23;100.00
16355;BME280;8287;51.644;8.494;2023-08-06T03:35:16;99221.75;;;16.16;100.00
16355;BME280;8287;51.644;8.494;2023-08-06T03:37:43;99219.06;;;16.16;100.00
16355;BME280;8287;51.644;8.494;2023-08-06T03:40:11;99224.41;;;16.16;100.00
16355;BME280;8287;51.644;8.494;2023-08-06T03:42:38;99224.53;;;16.26;100.00
16355;BME280;8287;51.644;8.494;2023-08-06T03:45:05;99227.75;;;16.42;100.00
16355;BME280;8287;51.644;8.494;2023-08-06T03:47:32;99218.31;;;16.55;100.00
16355;BME280;8287;51.644;8.494;2023-08-06T03:49:59;99220.75;;;16.71;100.00
16355;BME280;8287;51.644;8.494;2023-08-06T03:52:26;99213.16;;;16.79;100.00
16355;BME280;8287;51.644;8.494;2023-08-06T03:54:52;99218.50;;;16.76;100.00
16355;BME280;8287;51.644;8.494;2023-08-06T03:57:20;99206.25;;;16.75;100.00
16355;BME280;8287;51.644;8.494;2023-08-06T03:59:47;99195.56;;;16.75;100.00
16355;BME280;8287;51.644;8.494;2023-08-06T04:02:13;99200.88;;;16.72;100.00
16355;BME280;8287;51.644;8.494;2023-08-06T04:04:40;99197.50;;;16.81;100.00
16355;BME280;8287;51.644;8.494;2023-08-06T04:07:07;99197.81;;;16.70;100.00
16355;BME280;8287;51.644;8.494;2023-08-06T04:09:33;99200.06;;;16.64;100.00
16355;BME280;8287;51.644;8.494;2023-08-06T04:12:02;99198.53;;;16.67;100.00
16355;BME280;8287;51.644;8.494;2023-08-06T04:14:31;99212.81;;;16.81;100.00
16355;BME280;8287;51.644;8.494;2023-08-06T04:16:58;99211.31;;;16.90;100.00
16355;BME280;8287;51.644;8.494;2023-08-06T04:19:25;99207.91;;;16.93;100.00
16355;BME280;8287;51.644;8.494;2023-08-06T04:21:51;99195.06;;;16.59;100.00
16355;BME280;8287;51.644;8.494;2023-08-06T04:24:18;99197.38;;;16.67;100.00
16355;BME280;8287;51.644;8.494;2023-08-06T04:26:45;99199.00;;;16.79;100.00
16355;BME280;8287;51.644;8.494;2023-08-06T04:29:12;99203.66;;;16.85;100.00
16355;BME280;8287;51.644;8.494;2023-08-06T04:31:40;99202.88;;;16.85;100.00
16355;BME280;8287;51.644;8.494;2023-08-06T04:34:07;99203.25;;;16.83;100.00
16355;BME280;8287;51.644;8.494;2023-08-06T04:36:34;99200.97;;;16.82;100.00
16355;BME280;8287;51.644;8.494;2023-08-06T04:39:01;99204.34;;;16.79;100.00
16355;BME280;8287;51.644;8.494;2023-08-06T04:41:28;99200.91;;;16.75;100.00
16355;BME280;8287;51.644;8.494;2023-08-06T04:43:54;99206.53;;;16.63;100.00
16355;BME280;8287;51.644;8.494;2023-08-06T04:46:23;99211.41;;;16.47;100.00
16355;BME280;8287;51.644;8.494;2023-08-06T04:48:51;99205.56;;;16.38;100.00
16355;BME280;8287;51.644;8.494;2023-08-06T04:51:18;99199.78;;;16.36;100.00
16355;BME280;8287;51.644;8.494;2023-08-06T04:53:44;99205.81;;;16.26;100.00
16355;BME280;8287;51.644;8.494;2023-08-06T04:56:11;99203.13;;;16.26;100.00
16355;BME280;8287;51.644;8.494;2023-08-06T04:58:41;99219.81;;;16.13;100.00
16355;BME280;8287;51.644;8.494;2023-08-06T05:01:07;99206.44;;;16.13;100.00
16355;BME280;8287;51.644;8.494;2023-08-06T05:03:34;99202.63;;;16.14;100.00
16355;BME280;8287;51.644;8.494;2023-08-06T05:06:02;99208.34;;;16.12;100.00
16355;BME280;8287;51.644;8.494;2023-08-06T05:08:29;99203.88;;;16.23;100.00
16355;BME280;8287;51.644;8.494;2023-08-06T05:10:56;99208.63;;;16.37;100.00
16355;BME280;8287;51.644;8.494;2023-08-06T05:13:22;99210.84;;;16.31;100.00
16355;BME280;8287;51.644;8.494;2023-08-06T05:15:50;99209.97;;;16.24;100.00
16355;BME280;8287;51.644;8.494;2023-08-06T05:18:17;99211.16;;;16.26;100.00
16355;BME280;8287;51.644;8.494;2023-08-06T05:20:44;99208.66;;;16.40;100.00
16355;BME280;8287;51.644;8.494;2023-08-06T05:23:12;99215.81;;;16.36;100.00
16355;BME280;8287;51.644;8.494;2023-08-06T05:25:39;99220.72;;;16.27;100.00
16355;BME280;8287;51.644;8.494;2023-08-06T05:28:06;99223.03;;;16.29;100.00
16355;BME280;8287;51.644;8.494;2023-08-06T05:30:32;99214.91;;;16.18;100.00
16355;BME280;8287;51.644;8.494;2023-08-06T05:33:00;99222.81;;;16.08;100.00
16355;BME280;8287;51.644;8.494;2023-08-06T05:35:26;99218.25;;;16.08;100.00
16355;BME280;8287;51.644;8.494;2023-08-06T05:37:53;99221.56;;;15.98;100.00
16355;BME280;8287;51.644;8.494;2023-08-06T05:40:21;99226.53;;;16.00;100.00
16355;BME280;8287;51.644;8.494;2023-08-06T05:42:49;99224.34;;;16.09;100.00
16355;BME280;8287;51.644;8.494;2023-08-06T05:45:16;99223.63;;;16.12;100.00
16355;BME280;8287;51.644;8.494;2023-08-06T05:47:44;99230.22;;;16.25;100.00
16355;BME280;8287;51.644;8.494;2023-08-06T05:50:10;99218.88;;;16.35;100.00
16355;BME280;8287;51.644;8.494;2023-08-06T05:52:37;99218.63;;;16.47;100.00
16355;BME280;8287;51.644;8.494;2023-08-06T05:55:05;99226.41;;;16.62;100.00
16355;BME280;8287;51.644;8.494;2023-08-06T05:57:33;99223.31;;;16.60;100.00
16355;BME280;8287;51.644;8.494;2023-08-06T06:00:00;99220.69;;;16.64;100.00
16355;BME280;8287;51.644;8.494;2023-08-06T06:02:27;99220.03;;;16.77;100.00
16355;BME280;8287;51.644;8.494;2023-08-06T06:04:53;99216.94;;;16.72;100.00
16355;BME280;8287;51.644;8.494;2023-08-06T06:07:20;99215.47;;;16.81;100.00
16355;BME280;8287;51.644;8.494;2023-08-06T06:09:47;99225.88;;;16.93;100.00
16355;BME280;8287;51.644;8.494;2023-08-06T06:12:14;99225.91;;;16.96;100.00
16355;BME280;8287;51.644;8.494;2023-08-06T06:14:42;99223.91;;;16.83;100.00
16355;BME280;8287;51.644;8.494;2023-08-06T06:17:08;99230.84;;;16.91;100.00
16355;BME280;8287;51.644;8.494;2023-08-06T06:19:35;99235.03;;;16.92;100.00
16355;BME280;8287;51.644;8.494;2023-08-06T06:22:02;99227.75;;;16.92;100.00
16355;BME280;8287;51.644;8.494;2023-08-06T06:24:28;99224.81;;;17.04;100.00
16355;BME280;8287;51.644;8.494;2023-08-06T06:26:55;99219.41;;;16.97;100.00
16355;BME280;8287;51.644;8.494;2023-08-06T06:29:22;99227.13;;;17.13;100.00
16355;BME280;8287;51.644;8.494;2023-08-06T06:31:50;99226.47;;;17.23;100.00
16355;BME280;8287;51.644;8.494;2023-08-06T06:34:16;99217.75;;;17.36;100.00
16355;BME280;8287;51.644;8.494;2023-08-06T06:36:43;99219.25;;;17.34;100.00
16355;BME280;8287;51.644;8.494;2023-08-06T06:39:10;99218.91;;;17.42;100.00
16355;BME280;8287;51.644;8.494;2023-08-06T06:41:37;99218.25;;;17.66;100.00
16355;BME280;8287;51.644;8.494;2023-08-06T06:44:04;99208.28;;;17.56;100.00
16355;BME280;8287;51.644;8.494;2023-08-06T06:46:31;99218.31;;;17.80;100.00
16355;BME280;8287;51.644;8.494;2023-08-06T06:48:59;99216.84;;;18.11;100.00
16355;BME280;8287;51.644;8.494;2023-08-06T06:51:25;99208.13;;;18.31;100.00
16355;BME280;8287;51.644;8.494;2023-08-06T06:53:52;99216.19;;;18.45;100.00
16355;BME280;8287;51.644;8.494;2023-08-06T06:56:19;99207.00;;;18.57;100.00
16355;BME280;8287;51.644;8.494;2023-08-06T06:58:45;99204.66;;;18.73;100.00
16355;BME280;8287;51.644;8.494;2023-08-06T07:01:12;99212.72;;;18.83;99.85
16355;BME280;8287;51.644;8.494;2023-08-06T07:03:39;99207.72;;;18.89;99.98
16355;BME280;8287;51.644;8.494;2023-08-06T07:06:07;99211.94;;;18.93;99.22
16355;BME280;8287;51.644;8.494;2023-08-06T07:08:34;99211.53;;;19.05;98.49
16355;BME280;8287;51.644;8.494;2023-08-06T07:11:01;99205.03;;;18.92;98.33
16355;BME280;8287;51.644;8.494;2023-08-06T07:13:28;99215.41;;;18.66;99.55
16355;BME280;8287;51.644;8.494;2023-08-06T07:15:55;99209.28;;;18.79;99.08
16355;BME280;8287;51.644;8.494;2023-08-06T07:18:22;99210.78;;;18.94;97.83
16355;BME280;8287;51.644;8.494;2023-08-06T07:20:49;99196.59;;;19.01;98.68
16355;BME280;8287;51.644;8.494;2023-08-06T07:23:18;99203.06;;;19.17;98.38
16355;BME280;8287;51.644;8.494;2023-08-06T07:25:46;99192.34;;;19.21;96.75
16355;BME280;8287;51.644;8.494;2023-08-06T07:28:12;99190.03;;;19.23;96.94
16355;BME280;8287;51.644;8.494;2023-08-06T07:30:39;99188.47;;;19.29;96.62
16355;BME280;8287;51.644;8.494;2023-08-06T07:33:06;99194.13;;;19.62;96.25
16355;BME280;8287;51.644;8.494;2023-08-06T07:35:33;99195.28;;;19.58;94.45
16355;BME280;8287;51.644;8.494;2023-08-06T07:38:00;99197.88;;;19.79;93.63
16355;BME280;8287;51.644;8.494;2023-08-06T07:40:28;99195.91;;;19.86;93.12
16355;BME280;8287;51.644;8.494;2023-08-06T07:42:55;99192.38;;;20.00;93.54
16355;BME280;8287;51.644;8.494;2023-08-06T07:45:22;99189.84;;;20.37;92.86
16355;BME280;8287;51.644;8.494;2023-08-06T07:47:48;99191.28;;;20.51;89.05
16355;BME280;8287;51.644;8.494;2023-08-06T07:50:16;99185.91;;;20.48;90.52
16355;BME280;8287;51.644;8.494;2023-08-06T07:52:43;99186.09;;;20.74;90.00
16355;BME280;8287;51.644;8.494;2023-08-06T07:55:09;99189.78;;;20.91;84.50
16355;BME280;8287;51.644;8.494;2023-08-06T07:57:37;99183.81;;;21.10;84.92
16355;BME280;8287;51.644;8.494;2023-08-06T08:00:05;99184.59;;;21.10;84.70
16355;BME280;8287;51.644;8.494;2023-08-06T08:02:32;99192.34;;;21.38;80.42
16355;BME280;8287;51.644;8.494;2023-08-06T08:04:58;99180.94;;;21.57;77.83
16355;BME280;8287;51.644;8.494;2023-08-06T08:07:25;99182.19;;;21.49;78.06
16355;BME280;8287;51.644;8.494;2023-08-06T08:09:54;99181.09;;;21.77;76.02
16355;BME280;8287;51.644;8.494;2023-08-06T08:12:20;99178.00;;;21.78;74.77
16355;BME280;8287;51.644;8.494;2023-08-06T08:14:48;99183.75;;;21.80;74.54
16355;BME280;8287;51.644;8.494;2023-08-06T08:17:15;99177.84;;;21.92;74.90
16355;BME280;8287;51.644;8.494;2023-08-06T08:19:42;99180.59;;;22.12;74.85
16355;BME280;8287;51.644;8.494;2023-08-06T08:22:08;99177.31;;;22.27;74.07
16355;BME280;8287;51.644;8.494;2023-08-06T08:24:35;99178.28;;;22.37;72.92
16355;BME280;8287;51.644;8.494;2023-08-06T08:27:02;99173.94;;;22.46;72.22
16355;BME280;8287;51.644;8.494;2023-08-06T08:29:28;99180.97;;;22.63;72.44
16355;BME280;8287;51.644;8.494;2023-08-06T08:31:56;99175.34;;;22.77;72.84
16355;BME280;8287;51.644;8.494;2023-08-06T08:34:23;99171.69;;;22.41;71.11
16355;BME280;8287;51.644;8.494;2023-08-06T08:36:50;99168.25;;;22.64;70.67
16355;BME280;8287;51.644;8.494;2023-08-06T08:39:16;99170.97;;;22.83;71.51
16355;BME280;8287;51.644;8.494;2023-08-06T08:41:43;99174.41;;;22.41;73.51
16355;BME280;8287;51.644;8.494;2023-08-06T08:44:10;99161.66;;;22.42;72.36
16355;BME280;8287;51.644;8.494;2023-08-06T08:46:38;99168.63;;;21.90;76.59
16355;BME280;8287;51.644;8.494;2023-08-06T08:49:07;99171.41;;;21.83;76.93
16355;BME280;8287;51.644;8.494;2023-08-06T08:51:34;99177.28;;;21.74;76.15
16355;BME280;8287;51.644;8.494;2023-08-06T08:54:03;99179.78;;;21.28;79.02
16355;BME280;8287;51.644;8.494;2023-08-06T08:56:30;99179.66;;;21.02;81.24
16355;BME280;8287;51.644;8.494;2023-08-06T08:58:57;99188.66;;;20.88;81.13
16355;BME280;8287;51.644;8.494;2023-08-06T09:01:25;99184.41;;;20.91;81.35
16355;BME280;8287;51.644;8.494;2023-08-06T09:03:51;99186.44;;;21.17;82.22
16355;BME280;8287;51.644;8.494;2023-08-06T09:06:22;99177.63;;;21.46;81.33
16355;BME280;8287;51.644;8.494;2023-08-06T09:08:56;99176.75;;;21.53;79.91
16355;BME280;8287;51.644;8.494;2023-08-06T09:11:27;99180.81;;;21.71;78.69
16355;BME280;8287;51.644;8.494;2023-08-06T09:13:54;99188.06;;;21.74;76.78
16355;BME280;8287;51.644;8.494;2023-08-06T09:16:21;99185.22;;;21.55;78.08
16355;BME280;8287;51.644;8.494;2023-08-06T09:18:48;99184.03;;;21.59;78.05
16355;BME280;8287;51.644;8.494;2023-08-06T09:21:15;99184.53;;;21.47;77.72
16355;BME280;8287;51.644;8.494;2023-08-06T09:23:43;99179.06;;;21.54;76.97
16355;BME280;8287;51.644;8.494;2023-08-06T09:26:11;99193.53;;;21.04;76.51
16355;BME280;8287;51.644;8.494;2023-08-06T09:28:39;99195.25;;;20.80;80.98
16355;BME280;8287;51.644;8.494;2023-08-06T09:31:08;99192.72;;;20.63;81.52
16355;BME280;8287;51.644;8.494;2023-08-06T09:33:36;99192.66;;;20.19;82.40
16355;BME280;8287;51.644;8.494;2023-08-06T09:36:10;99180.19;;;20.42;82.76
16355;BME280;8287;51.644;8.494;2023-08-06T09:38:40;99193.97;;;20.95;80.62
16355;BME280;8287;51.644;8.494;2023-08-06T09:41:08;99199.44;;;21.25;79.61
16355;BME280;8287;51.644;8.494;2023-08-06T09:43:44;99199.00;;;21.30;82.14
16355;BME280;8287;51.644;8.494;2023-08-06T09:46:11;99204.94;;;21.15;88.90
16355;BME280;8287;51.644;8.494;2023-08-06T09:48:39;99215.19;;;20.90;90.50
16355;BME280;8287;51.644;8.494;2023-08-06T09:51:08;99216.16;;;20.62;99.68
16355;BME280;8287;51.644;8.494;2023-08-06T09:53:36;99208.00;;;20.26;100.00
16355;BME280;8287;51.644;8.494;2023-08-06T09:56:03;99218.13;;;20.08;100.00
16355;BME280;8287;51.644;8.494;2023-08-06T09:58:32;99218.53;;;19.92;100.00
16355;BME280;8287;51.644;8.494;2023-08-06T10:00:59;99217.06;;;19.81;100.00
16355;BME280;8287;51.644;8.494;2023-08-06T10:03:27;99217.47;;;19.76;100.00
16355;BME280;8287;51.644;8.494;2023-08-06T10:05:55;99220.59;;;19.64;100.00
16355;BME280;8287;51.644;8.494;2023-08-06T10:08:22;99225.97;;;19.64;100.00
16355;BME280;8287;51.644;8.494;2023-08-06T10:10:49;99215.22;;;19.57;100.00
16355;BME280;8287;51.644;8.494;2023-08-06T10:13:16;99220.66;;;19.53;100.00
16355;BME280;8287;51.644;8.494;2023-08-06T10:15:46;99210.69;;;19.43;100.00
16355;BME280;8287;51.644;8.494;2023-08-06T10:18:13;99217.63;;;19.41;100.00
16355;BME280;8287;51.644;8.494;2023-08-06T10:20:43;99206.09;;;19.37;100.00
16355;BME280;8287;51.644;8.494;2023-08-06T10:23:10;99205.38;;;19.33;100.00
16355;BME280;8287;51.644;8.494;2023-08-06T10:25:40;99207.28;;;19.32;100.00
16355;BME280;8287;51.644;8.494;2023-08-06T10:28:08;99201.88;;;19.36;100.00
16355;BME280;8287;51.644;8.494;2023-08-06T10:30:42;99193.84;;;19.32;100.00
16355;BME280;8287;51.644;8.494;2023-08-06T10:33:11;99191.16;;;19.36;100.00
16355;BME280;8287;51.644;8.494;2023-08-06T10:35:40;99199.56;;;19.45;100.00
16355;BME280;8287;51.644;8.494;2023-08-06T10:38:10;99202.22;;;19.52;100.00
16355;BME280;8287;51.644;8.494;2023-08-06T10:40:39;99201.53;;;19.23;100.00
16355;BME280;8287;51.644;8.494;2023-08-06T10:43:07;99203.41;;;19.44;100.00
16355;BME280;8287;51.644;8.494;2023-08-06T10:45:36;99199.53;;;19.52;100.00
16355;BME280;8287;51.644;8.494;2023-08-06T10:48:04;99199.84;;;19.68;100.00
16355;BME280;8287;51.644;8.494;2023-08-06T10:50:32;99200.22;;;19.66;100.00
16355;BME280;8287;51.644;8.494;2023-08-06T10:53:04;99197.03;;;19.89;100.00
16355;BME280;8287;51.644;8.494;2023-08-06T10:55:31;99197.75;;;18.93;100.00
16355;BME280;8287;51.644;8.494;2023-08-06T10:57:58;99187.69;;;19.35;100.00
16355;BME280;8287;51.644;8.494;2023-08-06T11:00:25;99191.94;;;19.36;100.00
16355;BME280;8287;51.644;8.494;2023-08-06T11:02:52;99193.00;;;19.49;100.00
16355;BME280;8287;51.644;8.494;2023-08-06T11:05:20;99191.31;;;19.87;100.00
16355;BME280;8287;51.644;8.494;2023-08-06T11:07:48;99190.03;;;20.12;100.00
16355;BME280;8287;51.644;8.494;2023-08-06T11:10:16;99198.63;;;19.83;99.28
16355;BME280;8287;51.644;8.494;2023-08-06T11:12:43;99192.31;;;20.61;99.91
16355;BME280;8287;51.644;8.494;2023-08-06T11:15:10;99198.13;;;21.03;99.65
16355;BME280;8287;51.644;8.494;2023-08-06T11:17:39;99193.09;;;21.42;99.73
16355;BME280;8287;51.644;8.494;2023-08-06T11:20:07;99197.69;;;21.42;95.43
16355;BME280;8287;51.644;8.494;2023-08-06T11:22:35;99193.88;;;21.39;91.90
16355;BME280;8287;51.644;8.494;2023-08-06T11:25:05;99188.19;;;21.67;91.22
16355;BME280;8287;51.644;8.494;2023-08-06T11:27:31;99190.59;;;22.15;88.33
16355;BME280;8287;51.644;8.494;2023-08-06T11:29:58;99192.31;;;22.55;84.57
16355;BME280;8287;51.644;8.494;2023-08-06T11:32:25;99193.31;;;22.64;80.10
16355;BME280;8287;51.644;8.494;2023-08-06T11:34:53;99191.53;;;22.05;80.96
16355;BME280;8287;51.644;8.494;2023-08-06T11:37:21;99185.91;;;22.19;86.06
16355;BME280;8287;51.644;8.494;2023-08-06T11:39:49;99191.03;;;21.53;80.73
16355;BME280;8287;51.644;8.494;2023-08-06T11:42:17;99175.06;;;22.22;80.16
16355;BME280;8287;51.644;8.494;2023-08-06T11:44:44;99181.03;;;22.33;83.71
16355;BME280;8287;51.644;8.494;2023-08-06T11:47:15;99178.22;;;22.67;81.89
16355;BME280;8287;51.644;8.494;2023-08-06T11:49:44;99178.97;;;22.18;72.81
16355;BME280;8287;51.644;8.494;2023-08-06T11:52:17;99171.34;;;21.86;76.88
16355;BME280;8287;51.644;8.494;2023-08-06T11:54:45;99173.88;;;21.70;78.26
16355;BME280;8287;51.644;8.494;2023-08-06T11:57:12;99166.81;;;22.06;79.24
16355;BME280;8287;51.644;8.494;2023-08-06T11:59:40;99173.56;;;21.65;74.57
16355;BME280;8287;51.644;8.494;2023-08-06T12:02:09;99173.16;;;21.66;79.24
16355;BME280;8287;51.644;8.494;2023-08-06T12:05:02;99167.78;;;21.93;78.88
16355;BME280;8287;51.644;8.494;2023-08-06T12:07:30;99166.50;;;22.27;78.27
16355;BME280;8287;51.644;8.494;2023-08-06T12:09:57;99157.56;;;22.57;75.93
16355;BME280;8287;51.644;8.494;2023-08-06T12:12:24;99159.25;;;22.70;75.66
16355;BME280;8287;51.644;8.494;2023-08-06T12:14:52;99160.66;;;22.78;75.19
16355;BME280;8287;51.644;8.494;2023-08-06T12:17:19;99167.81;;;22.88;75.22
16355;BME280;8287;51.644;8.494;2023-08-06T12:19:46;99166.50;;;22.96;72.64
16355;BME280;8287;51.644;8.494;2023-08-06T12:22:14;99169.00;;;23.07;73.66
16355;BME280;8287;51.644;8.494;2023-08-06T12:24:46;99165.53;;;23.06;72.52
16355;BME280;8287;51.644;8.494;2023-08-06T12:27:13;99169.59;;;23.18;73.17
16355;BME280;8287;51.644;8.494;2023-08-06T12:29:41;99161.44;;;23.21;73.11
16355;BME280;8287;51.644;8.494;2023-08-06T12:32:10;99167.25;;;23.20;73.58
16355;BME280;8287;51.644;8.494;2023-08-06T12:34:38;99172.44;;;23.30;72.84
16355;BME280;8287;51.644;8.494;2023-08-06T12:37:04;99171.25;;;23.31;71.68
16355;BME280;8287;51.644;8.494;2023-08-06T12:39:31;99172.03;;;23.51;71.85
16355;BME280;8287;51.644;8.494;2023-08-06T12:41:58;99165.91;;;23.67;69.73
16355;BME280;8287;51.644;8.494;2023-08-06T12:44:27;99160.84;;;23.85;71.55
16355;BME280;8287;51.644;8.494;2023-08-06T12:46:54;99153.91;;;24.03;70.91
16355;BME280;8287;51.644;8.494;2023-08-06T12:49:23;99168.44;;;24.25;70.29
16355;BME280;8287;51.644;8.494;2023-08-06T12:51:50;99155.59;;;24.29;71.46
16355;BME280;8287;51.644;8.494;2023-08-06T12:54:17;99165.09;;;24.37;71.83
16355;BME280;8287;51.644;8.494;2023-08-06T12:56:45;99167.25;;;24.26;73.67
16355;BME280;8287;51.644;8.494;2023-08-06T12:59:13;99159.06;;;24.45;72.76
16355;BME280;8287;51.644;8.494;2023-08-06T13:01:40;99168.53;;;24.53;72.76
16355;BME280;8287;51.644;8.494;2023-08-06T13:04:06;99180.03;;;24.89;73.09
16355;BME280;8287;51.644;8.494;2023-08-06T13:06:35;99177.59;;;25.23;69.44